createdAt,value
2022-09-22T00:00:56.850Z,3.75
2022-09-22T00:01:53.496Z,4.75
2022-09-22T00:02:50.108Z,3.47
2022-09-22T00:03:50.207Z,6.32
2022-09-22T00:04:46.773Z,3.20
2022-09-22T00:05:43.345Z,3.97
2022-09-22T00:06:48.690Z,3.10
2022-09-22T00:07:45.313Z,4.82
2022-09-22T00:08:44.780Z,3.88
2022-09-22T00:09:41.357Z,3.17
2022-09-22T00:10:37.998Z,3.63
2022-09-22T00:11:37.986Z,3.67
2022-09-22T00:12:35.687Z,6.28
2022-09-22T00:13:34.189Z,5.05
2022-09-22T00:14:30.758Z,6.32
2022-09-22T00:15:27.388Z,3.63
2022-09-22T00:16:27.405Z,4.25
2022-09-22T00:17:24.118Z,5.50
2022-09-22T00:18:20.711Z,4.00
2022-09-22T00:19:21.701Z,5.40
2022-09-22T00:20:18.323Z,4.22
2022-09-22T00:21:18.916Z,4.25
2022-09-22T00:22:15.509Z,4.00
2022-09-22T00:23:12.111Z,3.90
2022-09-22T00:24:09.155Z,4.18
2022-09-22T00:25:07.486Z,3.88
2022-09-22T00:26:06.683Z,6.85
2022-09-22T00:27:03.584Z,4.35
2022-09-22T00:28:00.162Z,4.78
2022-09-22T00:28:57.179Z,5.13
2022-09-22T00:29:53.768Z,9.60
2022-09-22T00:30:50.463Z,5.18
2022-09-22T00:31:47.160Z,4.07
2022-09-22T00:32:43.779Z,4.13
2022-09-22T00:33:43.450Z,5.35
2022-09-22T00:34:40.043Z,3.53
2022-09-22T00:35:39.662Z,3.65
2022-09-22T00:36:36.442Z,4.85
2022-09-22T00:37:33.444Z,6.25
2022-09-22T00:38:31.027Z,4.82
2022-09-22T00:39:30.843Z,5.90
2022-09-22T00:40:27.497Z,3.70
2022-09-22T00:41:31.360Z,7.32
2022-09-22T00:42:28.009Z,6.10
2022-09-22T00:43:27.153Z,6.72
2022-09-22T00:44:27.060Z,5.78
2022-09-22T00:45:23.718Z,5.70
2022-09-22T00:46:26.639Z,5.03
2022-09-22T00:47:23.215Z,7.18
2022-09-22T00:48:23.091Z,5.32
2022-09-22T00:49:27.833Z,4.22
2022-09-22T00:50:25.221Z,6.30
2022-09-22T00:51:25.568Z,7.18
2022-09-22T00:52:30.744Z,6.35
2022-09-22T00:53:28.916Z,6.95
2022-09-22T00:54:25.871Z,7.95
2022-09-22T00:55:23.279Z,5.90
2022-09-22T00:56:26.686Z,5.25
2022-09-22T00:57:28.415Z,4.25
2022-09-22T00:58:35.889Z,4.20
2022-09-22T00:59:32.955Z,5.78
2022-09-22T01:00:29.608Z,6.05
2022-09-22T01:01:26.253Z,6.07
2022-09-22T01:02:24.079Z,5.32
2022-09-22T01:03:26.270Z,8.82
2022-09-22T01:04:27.953Z,6.10
2022-09-22T01:05:27.507Z,7.65
2022-09-22T01:06:28.240Z,7.07
2022-09-22T01:07:28.278Z,7.05
2022-09-22T01:08:28.335Z,6.38
2022-09-22T01:09:25.932Z,7.68
2022-09-22T01:10:24.176Z,11.40
2022-09-22T01:11:21.395Z,6.28
2022-09-22T01:12:18.103Z,7.72
2022-09-22T01:13:20.761Z,7.00
2022-09-22T01:14:46.645Z,7.70
2022-09-22T01:16:07.605Z,8.02
2022-09-22T01:17:35.054Z,6.53
2022-09-22T01:18:54.349Z,8.15
2022-09-22T01:20:16.976Z,7.10
2022-09-22T01:21:22.001Z,12.60
2022-09-22T01:22:47.153Z,7.07
2022-09-22T01:24:14.850Z,6.80
2022-09-22T01:25:35.874Z,7.88
2022-09-22T01:26:52.748Z,8.25
2022-09-22T01:28:20.308Z,6.70
2022-09-22T01:29:37.136Z,8.07
2022-09-22T01:30:42.695Z,6.57
2022-09-22T01:31:53.099Z,6.55
2022-09-22T01:32:58.606Z,6.50
2022-09-22T01:34:06.104Z,6.00
2022-09-22T01:35:07.229Z,6.63
2022-09-22T01:36:14.393Z,6.18
2022-09-22T01:37:14.542Z,6.50
2022-09-22T01:38:30.190Z,5.65
2022-09-22T01:39:59.741Z,8.45
2022-09-22T01:41:15.283Z,7.05
2022-09-22T01:42:12.059Z,4.43
2022-09-22T01:43:22.059Z,4.22
2022-09-22T01:44:34.804Z,4.25
2022-09-22T01:45:31.518Z,3.50
2022-09-22T01:46:34.315Z,3.97
2022-09-22T01:47:43.133Z,6.35
2022-09-22T01:48:45.479Z,5.32
2022-09-22T01:50:49.161Z,4.57
2022-09-22T01:51:52.848Z,4.88
2022-09-22T01:52:52.742Z,6.00
2022-09-22T01:53:55.816Z,5.43
2022-09-22T01:55:10.703Z,4.35
2022-09-22T01:56:11.920Z,4.68
2022-09-22T01:57:18.934Z,5.68
2022-09-22T01:58:20.313Z,6.63
2022-09-22T01:59:20.258Z,4.95
2022-09-22T02:00:17.578Z,7.82
2022-09-22T02:01:20.232Z,8.25
2022-09-22T02:02:25.561Z,5.88
2022-09-22T02:03:51.341Z,4.13
2022-09-22T02:04:53.264Z,5.75
2022-09-22T02:06:01.795Z,6.65
2022-09-22T02:07:02.852Z,4.35
2022-09-22T02:08:06.609Z,4.22
2022-09-22T02:09:11.962Z,6.47
2022-09-22T02:10:12.740Z,6.35
2022-09-22T02:11:13.902Z,8.13
2022-09-22T02:12:10.533Z,6.70
2022-09-22T02:13:07.310Z,7.13
2022-09-22T02:14:04.585Z,8.63
2022-09-22T02:15:01.250Z,6.88
2022-09-22T02:16:01.020Z,9.02
2022-09-22T02:16:59.153Z,7.63
2022-09-22T02:18:00.904Z,7.63
2022-09-22T02:19:12.599Z,7.95
2022-09-22T02:20:10.514Z,7.93
2022-09-22T02:21:07.126Z,7.10
2022-09-22T02:22:05.532Z,7.43
2022-09-22T02:23:03.063Z,9.60
2022-09-22T02:24:01.073Z,6.32
2022-09-22T02:24:57.663Z,6.43
2022-09-22T02:25:55.251Z,7.90
2022-09-22T02:26:52.752Z,6.28
2022-09-22T02:27:53.580Z,5.13
2022-09-22T02:29:03.483Z,5.63
2022-09-22T02:30:05.283Z,5.57
2022-09-22T02:31:19.507Z,5.07
2022-09-22T02:32:19.328Z,3.92
2022-09-22T02:33:16.245Z,4.88
2022-09-22T02:34:13.011Z,3.97
2022-09-22T02:35:10.352Z,6.15
2022-09-22T02:36:12.934Z,5.18
2022-09-22T02:38:22.042Z,6.40
2022-09-22T02:39:24.460Z,11.02
2022-09-22T02:41:35.631Z,11.30
2022-09-22T02:42:49.670Z,8.45
2022-09-22T02:43:53.929Z,5.40
2022-09-22T02:44:59.445Z,6.18
2022-09-22T02:45:58.721Z,5.70
2022-09-22T02:47:12.586Z,4.63
2022-09-22T02:48:53.749Z,5.85
2022-09-22T02:49:52.621Z,6.18
2022-09-22T02:50:50.481Z,5.22
2022-09-22T02:51:49.534Z,5.15
2022-09-22T02:52:46.107Z,6.20
2022-09-22T02:53:42.748Z,4.75
2022-09-22T02:54:39.742Z,4.57
2022-09-22T02:55:36.559Z,3.60
2022-09-22T02:56:33.922Z,3.10
2022-09-22T02:57:30.536Z,7.50
2022-09-22T02:58:27.120Z,4.70
2022-09-22T02:59:24.028Z,4.63
2022-09-22T03:00:20.629Z,4.80
2022-09-22T03:01:17.306Z,5.00
2022-09-22T03:02:14.244Z,5.50
2022-09-22T03:03:11.676Z,6.28
2022-09-22T03:04:08.305Z,6.07
2022-09-22T03:05:05.276Z,5.32
2022-09-22T03:06:01.907Z,5.18
2022-09-22T03:06:58.492Z,4.30
2022-09-22T03:07:55.112Z,4.57
2022-09-22T03:08:51.694Z,4.88
2022-09-22T03:09:48.362Z,3.75
2022-09-22T03:10:45.235Z,4.13
2022-09-22T03:11:41.856Z,3.63
2022-09-22T03:13:02.302Z,6.53
2022-09-22T03:13:59.188Z,6.63
2022-09-22T03:14:55.962Z,4.88
2022-09-22T03:15:52.596Z,4.25
2022-09-22T03:16:49.284Z,4.07
2022-09-22T03:17:47.297Z,4.35
2022-09-22T03:18:43.940Z,4.75
2022-09-22T03:19:40.538Z,3.83
2022-09-22T03:20:37.174Z,3.95
2022-09-22T03:21:33.820Z,3.22
2022-09-22T03:22:30.435Z,3.55
2022-09-22T03:23:27.258Z,4.22
2022-09-22T03:24:23.808Z,3.80
2022-09-22T03:25:20.576Z,3.85
2022-09-22T03:26:17.204Z,3.47
2022-09-22T03:27:13.917Z,4.10
2022-09-22T03:28:10.539Z,4.03
2022-09-22T03:29:07.171Z,3.90
2022-09-22T03:30:06.316Z,3.88
2022-09-22T03:31:02.997Z,3.58
2022-09-22T03:31:59.619Z,3.97
2022-09-22T03:32:56.332Z,4.15
2022-09-22T03:33:53.017Z,3.35
2022-09-22T03:34:49.635Z,5.47
2022-09-22T03:35:46.186Z,3.65
2022-09-22T03:36:42.831Z,3.15
2022-09-22T03:37:39.490Z,3.38
2022-09-22T03:38:36.177Z,4.05
2022-09-22T03:39:32.764Z,5.32
2022-09-22T03:40:29.455Z,4.20
2022-09-22T03:41:26.690Z,4.70
2022-09-22T03:42:23.257Z,6.00
2022-09-22T03:43:20.503Z,4.63
2022-09-22T03:44:18.065Z,4.35
2022-09-22T03:45:15.475Z,5.00
2022-09-22T03:46:13.979Z,5.95
2022-09-22T03:47:11.032Z,4.10
2022-09-22T03:48:07.620Z,4.35
2022-09-22T03:49:04.179Z,4.65
2022-09-22T03:50:00.850Z,4.50
2022-09-22T03:50:58.206Z,5.55
2022-09-22T03:51:54.775Z,4.10
2022-09-22T03:52:51.357Z,3.92
2022-09-22T03:53:48.017Z,3.90
2022-09-22T03:54:44.571Z,4.28
2022-09-22T03:55:41.208Z,4.35
2022-09-22T03:56:38.956Z,5.80
2022-09-22T03:57:35.593Z,4.28
2022-09-22T03:58:32.158Z,3.67
2022-09-22T03:59:28.898Z,2.70
2022-09-22T04:00:25.442Z,4.05
2022-09-22T04:01:22.058Z,4.18
2022-09-22T04:02:18.770Z,3.40
2022-09-22T04:03:15.419Z,4.63
2022-09-22T04:04:12.010Z,5.28
2022-09-22T04:05:10.164Z,4.75
2022-09-22T04:06:07.200Z,4.88
2022-09-22T04:07:07.262Z,4.65
2022-09-22T04:08:04.557Z,4.80
2022-09-22T04:09:01.484Z,4.38
2022-09-22T04:09:58.466Z,4.20
2022-09-22T04:10:55.076Z,5.60
2022-09-22T04:11:51.703Z,7.07
2022-09-22T04:12:48.877Z,5.43
2022-09-22T04:13:46.599Z,5.40
2022-09-22T04:14:43.359Z,5.60
2022-09-22T04:15:40.515Z,5.72
2022-09-22T04:16:37.201Z,6.20
2022-09-22T04:17:33.833Z,5.20
2022-09-22T04:18:30.524Z,8.98
2022-09-22T04:19:27.173Z,6.95
2022-09-22T04:20:23.821Z,5.80
2022-09-22T04:21:20.416Z,8.63
2022-09-22T04:22:17.011Z,8.77
2022-09-22T04:23:15.594Z,6.00
2022-09-22T04:24:12.127Z,6.40
2022-09-22T04:25:09.332Z,6.88
2022-09-22T04:26:06.272Z,8.13
2022-09-22T04:27:19.179Z,6.85
2022-09-22T04:28:16.895Z,6.53
2022-09-22T04:29:13.505Z,8.30
2022-09-22T04:30:10.937Z,6.35
2022-09-22T04:31:07.538Z,5.07
2022-09-22T04:32:04.308Z,5.63
2022-09-22T04:33:01.199Z,5.85
2022-09-22T04:33:57.788Z,8.50
2022-09-22T04:34:54.400Z,6.78
2022-09-22T04:35:51.583Z,6.95
2022-09-22T04:36:48.156Z,8.30
2022-09-22T04:37:45.079Z,108.70
2022-09-22T04:38:41.864Z,110.55
2022-09-22T04:39:38.673Z,160.95
2022-09-22T04:40:35.303Z,23.13
2022-09-22T04:41:31.905Z,8.52
2022-09-22T04:42:28.609Z,6.07
2022-09-22T04:43:25.296Z,7.78
2022-09-22T04:44:21.904Z,22.92
2022-09-22T04:45:18.650Z,21.98
2022-09-22T04:46:15.292Z,8.98
2022-09-22T04:47:11.945Z,7.55
2022-09-22T04:48:08.561Z,74.40
2022-09-22T04:49:05.200Z,56.70
2022-09-22T04:50:01.877Z,15.98
2022-09-22T04:50:58.522Z,6.72
2022-09-22T04:51:55.138Z,6.10
2022-09-22T04:52:54.738Z,6.60
2022-09-22T04:53:51.319Z,4.10
2022-09-22T04:54:47.979Z,6.30
2022-09-22T04:55:44.564Z,5.18
2022-09-22T04:56:42.419Z,7.22
2022-09-22T04:57:39.196Z,5.18
2022-09-22T04:58:35.787Z,4.13
2022-09-22T04:59:32.701Z,4.15
2022-09-22T05:00:30.265Z,4.85
2022-09-22T05:01:27.501Z,5.75
2022-09-22T05:02:24.169Z,3.60
2022-09-22T05:03:22.321Z,4.28
2022-09-22T05:04:19.168Z,5.35
2022-09-22T05:05:16.855Z,3.47
2022-09-22T05:06:13.501Z,6.38
2022-09-22T05:07:10.072Z,5.93
2022-09-22T05:08:07.846Z,4.18
2022-09-22T05:09:05.051Z,4.05
2022-09-22T05:10:02.741Z,4.45
2022-09-22T05:10:59.833Z,4.40
2022-09-22T05:12:00.980Z,4.63
2022-09-22T05:12:57.859Z,4.45
2022-09-22T05:13:56.122Z,4.45
2022-09-22T05:14:53.128Z,4.90
2022-09-22T05:15:49.683Z,4.57
2022-09-22T05:16:46.438Z,3.45
2022-09-22T05:17:51.641Z,3.78
2022-09-22T05:18:50.295Z,3.55
2022-09-22T05:19:47.216Z,4.68
2022-09-22T05:20:44.550Z,5.03
2022-09-22T05:21:41.178Z,4.53
2022-09-22T05:22:41.709Z,4.63
2022-09-22T05:23:39.778Z,4.63
2022-09-22T05:24:36.417Z,4.85
2022-09-22T05:25:33.765Z,4.45
2022-09-22T05:26:32.881Z,4.47
2022-09-22T05:27:29.747Z,4.72
2022-09-22T05:28:26.993Z,4.82
2022-09-22T05:29:27.191Z,4.88
2022-09-22T05:30:25.950Z,4.20
2022-09-22T05:31:22.582Z,4.45
2022-09-22T05:32:19.162Z,4.68
2022-09-22T05:33:15.755Z,6.53
2022-09-22T05:34:12.376Z,5.25
2022-09-22T05:35:09.498Z,11.00
2022-09-22T05:36:06.328Z,5.22
2022-09-22T05:37:02.949Z,4.40
2022-09-22T05:37:59.551Z,4.47
2022-09-22T05:38:56.137Z,6.15
2022-09-22T05:39:52.748Z,8.35
2022-09-22T05:40:49.381Z,5.45
2022-09-22T05:41:46.078Z,4.28
2022-09-22T05:42:51.458Z,4.20
2022-09-22T05:43:48.037Z,4.47
2022-09-22T05:44:44.633Z,4.93
2022-09-22T05:45:41.502Z,4.38
2022-09-22T05:46:38.221Z,4.07
2022-09-22T05:47:34.944Z,3.40
2022-09-22T05:48:31.716Z,4.15
2022-09-22T05:49:28.464Z,3.60
2022-09-22T05:50:25.136Z,3.47
2022-09-22T05:51:21.809Z,4.18
2022-09-22T05:52:18.379Z,3.88
2022-09-22T05:53:15.512Z,3.42
2022-09-22T05:54:12.436Z,3.60
2022-09-22T05:55:09.700Z,3.50
2022-09-22T05:56:06.490Z,3.30
2022-09-22T05:57:03.250Z,4.43
2022-09-22T05:58:00.506Z,3.53
2022-09-22T05:58:57.252Z,3.40
2022-09-22T05:59:54.962Z,2.90
2022-09-22T06:00:52.235Z,3.88
2022-09-22T06:01:48.850Z,3.35
2022-09-22T06:02:45.470Z,3.00
2022-09-22T06:03:42.397Z,3.05
2022-09-22T06:04:39.017Z,2.80
2022-09-22T06:05:38.185Z,2.90
2022-09-22T06:06:35.290Z,3.83
2022-09-22T06:07:31.930Z,2.65
2022-09-22T06:08:28.563Z,2.85
2022-09-22T06:09:25.216Z,2.40
2022-09-22T06:10:21.801Z,2.70
2022-09-22T06:11:18.494Z,5.32
2022-09-22T06:12:15.966Z,3.88
2022-09-22T06:13:12.654Z,5.22
2022-09-22T06:14:09.273Z,4.38
2022-09-22T06:15:07.167Z,2.25
2022-09-22T06:16:04.269Z,2.45
2022-09-22T06:17:01.687Z,2.20
2022-09-22T06:17:58.700Z,4.22
2022-09-22T06:18:55.296Z,2.28
2022-09-22T06:19:52.042Z,3.95
2022-09-22T06:20:49.575Z,3.75
2022-09-22T06:21:46.253Z,3.13
2022-09-22T06:22:45.076Z,2.78
2022-09-22T06:23:42.973Z,2.35
2022-09-22T06:24:40.304Z,2.30
2022-09-22T06:25:36.971Z,2.13
2022-09-22T06:26:33.614Z,4.38
2022-09-22T06:27:30.193Z,1.98
2022-09-22T06:28:26.917Z,4.68
2022-09-22T06:29:23.577Z,2.88
2022-09-22T06:30:20.282Z,2.17
2022-09-22T06:31:16.977Z,5.45
2022-09-22T06:32:13.845Z,2.30
2022-09-22T06:33:11.947Z,2.95
2022-09-22T06:34:08.609Z,3.60
2022-09-22T06:35:07.388Z,3.00
2022-09-22T06:36:08.080Z,2.42
2022-09-22T06:37:08.539Z,2.53
2022-09-22T06:38:06.627Z,3.20
2022-09-22T06:39:04.438Z,2.70
2022-09-22T06:40:01.414Z,4.95
2022-09-22T06:41:02.942Z,8.95
2022-09-22T06:42:01.352Z,3.60
2022-09-22T06:42:59.966Z,7.97
2022-09-22T06:43:56.531Z,6.13
2022-09-22T06:44:53.764Z,8.32
2022-09-22T06:45:51.675Z,5.47
2022-09-22T06:46:48.348Z,5.78
2022-09-22T06:47:45.381Z,3.20
2022-09-22T06:48:42.021Z,4.53
2022-09-22T06:49:38.636Z,2.20
2022-09-22T06:50:35.220Z,2.00
2022-09-22T06:51:34.193Z,1.73
2022-09-22T06:52:31.115Z,3.00
2022-09-22T06:53:27.902Z,2.60
2022-09-22T06:54:25.690Z,2.13
2022-09-22T06:55:22.511Z,2.13
2022-09-22T06:56:20.333Z,2.22
2022-09-22T06:57:17.725Z,3.58
2022-09-22T06:58:15.556Z,4.93
2022-09-22T06:59:16.732Z,2.78
2022-09-22T07:00:15.129Z,5.72
2022-09-22T07:01:12.083Z,4.30
2022-09-22T07:02:09.725Z,3.10
2022-09-22T07:03:11.513Z,3.90
2022-09-22T07:04:08.893Z,4.90
2022-09-22T07:05:05.691Z,2.50
2022-09-22T07:06:03.103Z,3.00
2022-09-22T07:07:00.921Z,2.95
2022-09-22T07:07:57.499Z,2.03
2022-09-22T07:08:54.110Z,2.20
2022-09-22T07:09:50.687Z,3.63
2022-09-22T07:10:58.395Z,2.67
2022-09-22T07:11:55.650Z,3.63
2022-09-22T07:12:52.261Z,1.80
2022-09-22T07:13:49.946Z,2.67
2022-09-22T07:14:49.440Z,2.17
2022-09-22T07:15:46.047Z,2.90
2022-09-22T07:16:43.233Z,4.97
2022-09-22T07:17:39.897Z,2.97
2022-09-22T07:18:40.746Z,3.83
2022-09-22T07:19:37.331Z,3.20
2022-09-22T07:20:35.637Z,2.17
2022-09-22T07:21:36.508Z,2.88
2022-09-22T07:22:33.309Z,3.03
2022-09-22T07:23:29.924Z,3.80
2022-09-22T07:24:27.960Z,2.53
2022-09-22T07:25:24.601Z,5.20
2022-09-22T07:26:33.917Z,2.47
2022-09-22T07:27:30.496Z,2.42
2022-09-22T07:28:28.931Z,3.47
2022-09-22T07:29:25.496Z,5.93
2022-09-22T07:30:22.672Z,4.05
2022-09-22T07:31:19.582Z,3.40
2022-09-22T07:32:16.530Z,2.92
2022-09-22T07:33:13.635Z,6.75
2022-09-22T07:34:10.724Z,3.42
2022-09-22T07:35:07.748Z,2.88
2022-09-22T07:36:14.347Z,5.50
2022-09-22T07:37:15.551Z,3.33
2022-09-22T07:38:12.160Z,2.85
2022-09-22T07:39:11.004Z,4.60
2022-09-22T07:40:08.514Z,3.05
2022-09-22T07:41:08.434Z,4.65
2022-09-22T07:42:05.073Z,3.15
2022-09-22T07:43:01.927Z,5.47
2022-09-22T07:44:19.156Z,3.05
2022-09-22T07:45:15.895Z,2.70
2022-09-22T07:46:13.312Z,2.65
2022-09-22T07:47:10.027Z,3.90
2022-09-22T07:48:25.111Z,3.25
2022-09-22T07:49:22.348Z,3.30
2022-09-22T07:50:19.055Z,2.83
2022-09-22T07:51:20.626Z,2.38
2022-09-22T07:52:17.408Z,3.15
2022-09-22T07:53:13.996Z,3.50
2022-09-22T07:54:10.749Z,4.03
2022-09-22T07:55:07.733Z,2.53
2022-09-22T07:56:12.376Z,3.08
2022-09-22T07:57:11.005Z,2.40
2022-09-22T07:58:09.415Z,2.58
2022-09-22T07:59:13.087Z,2.03
2022-09-22T08:00:10.554Z,2.58
2022-09-22T08:01:09.162Z,2.42
2022-09-22T08:02:06.212Z,2.00
2022-09-22T08:03:04.134Z,4.03
2022-09-22T08:04:01.716Z,4.88
2022-09-22T08:05:02.716Z,2.45
2022-09-22T08:06:06.293Z,2.30
2022-09-22T08:07:03.069Z,2.00
2022-09-22T08:08:02.269Z,2.17
2022-09-22T08:09:05.131Z,3.83
2022-09-22T08:10:02.018Z,2.13
2022-09-22T08:11:04.866Z,1.67
2022-09-22T08:12:02.289Z,1.50
2022-09-22T08:13:00.292Z,1.15
2022-09-22T08:14:02.090Z,1.25
2022-09-22T08:14:58.690Z,2.55
2022-09-22T08:15:56.654Z,1.33
2022-09-22T08:16:53.962Z,1.63
2022-09-22T08:17:58.173Z,1.50
2022-09-22T08:19:00.606Z,1.42
2022-09-22T08:19:59.469Z,3.70
2022-09-22T08:20:56.053Z,1.67
2022-09-22T08:21:54.301Z,2.35
2022-09-22T08:22:54.098Z,2.15
2022-09-22T08:23:53.590Z,2.35
2022-09-22T08:24:50.140Z,9.02
2022-09-22T08:25:46.779Z,4.50
2022-09-22T08:26:48.109Z,1.70
2022-09-22T08:27:45.057Z,3.00
2022-09-22T08:28:41.713Z,2.45
2022-09-22T08:29:38.381Z,2.58
2022-09-22T08:30:36.803Z,3.60
2022-09-22T08:31:35.332Z,3.50
2022-09-22T08:32:31.948Z,2.50
2022-09-22T08:33:31.671Z,3.78
2022-09-22T08:34:28.376Z,2.70
2022-09-22T08:35:24.966Z,3.22
2022-09-22T08:36:23.917Z,2.95
2022-09-22T08:37:20.662Z,4.03
2022-09-22T08:38:17.321Z,2.63
2022-09-22T08:39:14.695Z,1.88
2022-09-22T08:40:23.664Z,2.22
2022-09-22T08:41:38.280Z,1.80
2022-09-22T08:42:35.109Z,2.55
2022-09-22T08:43:32.410Z,2.60
2022-09-22T08:44:37.498Z,2.45
2022-09-22T08:45:38.452Z,1.98
2022-09-22T08:46:39.168Z,1.80
2022-09-22T08:48:04.764Z,2.05
2022-09-22T08:50:00.271Z,1.90
2022-09-22T08:51:23.804Z,2.08
2022-09-22T08:52:35.228Z,3.42
2022-09-22T08:53:35.635Z,2.72
2022-09-22T08:54:32.939Z,2.20
2022-09-22T08:55:30.790Z,1.75
2022-09-22T08:56:51.787Z,1.70
2022-09-22T08:58:27.408Z,1.70
2022-09-22T08:59:44.778Z,1.50
2022-09-22T09:00:48.918Z,1.70
2022-09-22T09:02:01.219Z,7.63
2022-09-22T09:03:16.680Z,1.92
2022-09-22T09:04:31.972Z,1.83
2022-09-22T09:05:34.550Z,2.83
2022-09-22T09:06:52.668Z,3.17
2022-09-22T09:08:27.603Z,4.18
2022-09-22T09:09:24.134Z,2.20
2022-09-22T09:10:52.640Z,1.40
2022-09-22T09:12:11.159Z,1.42
2022-09-22T09:13:10.835Z,1.35
2022-09-22T09:14:16.231Z,1.40
2022-09-22T09:15:31.036Z,1.25
2022-09-22T09:16:48.468Z,7.13
2022-09-22T09:17:47.184Z,4.07
2022-09-22T09:18:51.847Z,6.03
2022-09-22T09:19:55.419Z,2.05
2022-09-22T09:20:52.321Z,1.65
2022-09-22T09:21:55.185Z,2.33
2022-09-22T09:22:56.099Z,1.98
2022-09-22T09:25:25.267Z,1.73
2022-09-22T09:26:23.800Z,5.28
2022-09-22T09:27:25.968Z,1.85
2022-09-22T09:28:32.326Z,1.77
2022-09-22T09:29:34.945Z,1.55
2022-09-22T09:30:54.109Z,2.22
2022-09-22T09:31:53.748Z,2.40
2022-09-22T09:33:10.935Z,1.60
2022-09-22T09:34:15.508Z,1.70
2022-09-22T09:35:15.155Z,1.30
2022-09-22T09:37:17.977Z,1.50
2022-09-22T09:38:17.370Z,1.63
2022-09-22T09:39:33.089Z,1.63
2022-09-22T09:40:29.916Z,1.50
2022-09-22T09:41:32.725Z,1.63
2022-09-22T09:42:33.258Z,1.67
2022-09-22T09:43:31.364Z,1.85
2022-09-22T09:44:33.375Z,1.63
2022-09-22T09:45:42.475Z,2.80
2022-09-22T09:47:07.909Z,1.58
2022-09-22T09:48:24.710Z,1.50
2022-09-22T09:49:24.169Z,1.52
2022-09-22T09:50:22.832Z,1.67
2022-09-22T09:51:20.085Z,3.97
2022-09-22T09:52:16.774Z,1.48
2022-09-22T09:53:32.448Z,1.48
2022-09-22T09:54:29.628Z,3.45
2022-09-22T09:55:27.738Z,1.50
2022-09-22T09:56:27.245Z,1.65
2022-09-22T09:57:27.873Z,1.70
2022-09-22T09:58:43.460Z,4.45
2022-09-22T10:00:04.129Z,2.47
2022-09-22T10:01:00.889Z,1.63
2022-09-22T10:01:57.984Z,1.70
2022-09-22T10:03:06.627Z,2.10
2022-09-22T10:04:03.262Z,4.82
2022-09-22T10:05:07.710Z,1.90
2022-09-22T10:06:07.958Z,1.98
2022-09-22T10:07:21.757Z,2.70
2022-09-22T10:08:23.629Z,4.75
2022-09-22T10:09:28.793Z,5.97
2022-09-22T10:10:41.192Z,1.83
2022-09-22T10:11:37.772Z,4.22
2022-09-22T10:12:34.523Z,2.00
2022-09-22T10:13:34.428Z,1.52
2022-09-22T10:14:35.102Z,1.65
2022-09-22T10:15:34.597Z,2.92
2022-09-22T10:16:33.451Z,1.55
2022-09-22T10:17:42.739Z,1.60
2022-09-22T10:18:40.795Z,1.58
2022-09-22T10:19:37.482Z,2.53
2022-09-22T10:20:34.586Z,2.78
2022-09-22T10:21:31.311Z,1.58
2022-09-22T10:22:28.627Z,3.17
2022-09-22T10:23:27.544Z,1.48
2022-09-22T10:24:32.807Z,1.85
2022-09-22T10:25:34.032Z,1.75
2022-09-22T10:26:33.190Z,1.65
2022-09-22T10:27:31.967Z,1.52
2022-09-22T10:28:28.542Z,1.48
2022-09-22T10:29:25.822Z,3.60
2022-09-22T10:30:24.083Z,1.77
2022-09-22T10:31:26.631Z,1.38
2022-09-22T10:32:23.364Z,3.40
2022-09-22T10:33:21.524Z,1.92
2022-09-22T10:34:37.520Z,3.20
2022-09-22T10:35:35.755Z,2.97
2022-09-22T10:36:35.052Z,1.95
2022-09-22T10:37:32.315Z,2.42
2022-09-22T10:38:29.506Z,1.60
2022-09-22T10:39:49.867Z,3.13
2022-09-22T10:40:52.967Z,1.83
2022-09-22T10:41:49.648Z,1.30
2022-09-22T10:42:48.200Z,3.28
2022-09-22T10:45:48.650Z,6.38
2022-09-22T10:46:51.413Z,2.65
2022-09-22T10:49:34.502Z,3.40
2022-09-22T10:50:49.624Z,3.25
2022-09-22T10:51:54.927Z,4.88
2022-09-22T10:53:10.737Z,2.47
2022-09-22T10:54:13.332Z,3.03
2022-09-22T10:56:37.773Z,1.63
2022-09-22T10:57:55.519Z,1.27
2022-09-22T10:59:24.617Z,1.10
2022-09-22T11:00:23.280Z,1.20
2022-09-22T11:01:22.746Z,2.55
2022-09-22T11:02:37.391Z,4.82
2022-09-22T11:03:56.983Z,0.75
2022-09-22T11:04:56.627Z,1.55
2022-09-22T11:06:33.772Z,0.90
2022-09-22T11:08:19.943Z,3.00
2022-09-22T11:10:00.454Z,1.23
2022-09-22T11:11:38.811Z,97.00
2022-09-22T11:12:39.249Z,116.15
2022-09-22T11:14:03.714Z,32.10
2022-09-22T11:15:13.569Z,8.38
2022-09-22T11:16:24.260Z,23.48
2022-09-22T11:17:46.006Z,48.55
2022-09-22T11:18:57.799Z,71.70
2022-09-22T11:19:58.780Z,11.40
2022-09-22T11:21:09.044Z,220.23
2022-09-22T11:22:30.903Z,230.38
2022-09-22T11:23:51.712Z,251.52
2022-09-22T11:25:32.750Z,121.45
2022-09-22T11:26:40.021Z,167.60
2022-09-22T11:28:03.573Z,166.77
2022-09-22T11:29:20.600Z,159.23
2022-09-22T11:30:21.662Z,16.08
2022-09-22T11:31:30.336Z,31.85
2022-09-22T11:32:29.441Z,4.78
2022-09-22T11:34:00.704Z,4.45
2022-09-22T11:35:32.534Z,10.95
2022-09-22T11:36:57.144Z,1.70
2022-09-22T11:38:15.604Z,3.65
2022-09-22T11:39:30.567Z,8.15
2022-09-22T11:40:39.563Z,10.27
2022-09-22T11:41:58.055Z,1.40
2022-09-22T11:43:04.531Z,1.42
2022-09-22T11:44:22.236Z,1.83
2022-09-22T11:45:43.621Z,2.22
2022-09-22T11:47:04.274Z,2.22
2022-09-22T11:48:32.119Z,2.47
2022-09-22T11:49:59.755Z,0.98
2022-09-22T11:51:15.134Z,1.00
2022-09-22T11:52:46.492Z,1.10
2022-09-22T11:53:58.502Z,1.00
2022-09-22T11:55:07.139Z,0.85
2022-09-22T11:56:12.555Z,0.95
2022-09-22T11:57:14.212Z,0.93
2022-09-22T11:58:19.536Z,1.07
2022-09-22T11:59:35.051Z,0.80
2022-09-22T12:00:43.276Z,0.80
2022-09-22T12:01:41.574Z,0.90
2022-09-22T12:03:03.650Z,0.80
2022-09-22T12:04:07.871Z,1.60
2022-09-22T12:05:09.922Z,1.00
2022-09-22T12:06:12.632Z,1.02
2022-09-22T12:07:17.858Z,3.75
2022-09-22T12:08:23.665Z,1.27
2022-09-22T12:09:22.733Z,1.15
2022-09-22T12:10:28.729Z,0.90
2022-09-22T12:11:28.281Z,2.25
2022-09-22T12:12:25.969Z,0.73
2022-09-22T12:13:23.981Z,0.95
2022-09-22T12:14:21.071Z,0.90
2022-09-22T12:15:54.914Z,0.70
2022-09-22T12:17:06.844Z,1.30
2022-09-22T12:18:03.735Z,4.00
2022-09-22T12:19:38.304Z,2.42
2022-09-22T12:21:02.856Z,1.33
2022-09-22T12:22:14.482Z,1.10
2022-09-22T12:23:15.925Z,1.60
2022-09-22T12:24:12.883Z,3.97
2022-09-22T12:25:31.492Z,1.45
2022-09-22T12:26:39.042Z,5.50
2022-09-22T12:27:36.203Z,2.63
2022-09-22T12:28:39.011Z,1.58
2022-09-22T12:29:37.171Z,1.50
2022-09-22T12:30:33.912Z,1.02
2022-09-22T12:31:40.391Z,3.28
2022-09-22T12:32:43.069Z,2.03
2022-09-22T12:33:52.406Z,3.67
2022-09-22T12:34:49.207Z,2.42
2022-09-22T12:35:53.524Z,1.50
2022-09-22T12:36:59.303Z,2.25
2022-09-22T12:37:56.005Z,2.50
2022-09-22T12:38:53.043Z,1.95
2022-09-22T12:39:49.983Z,2.35
2022-09-22T12:40:49.784Z,1.73
2022-09-22T12:42:04.879Z,2.65
2022-09-22T12:43:01.788Z,1.85
2022-09-22T12:44:12.694Z,1.80
2022-09-22T12:45:41.582Z,1.50
2022-09-22T12:46:43.191Z,3.33
2022-09-22T12:47:41.815Z,1.55
2022-09-22T12:48:38.519Z,1.27
2022-09-22T12:49:48.242Z,1.10
2022-09-22T12:50:45.846Z,1.30
2022-09-22T12:51:42.889Z,1.40
2022-09-22T12:52:39.459Z,4.13
2022-09-22T12:53:40.139Z,11.00
2022-09-22T12:54:39.651Z,1.05
2022-09-22T12:55:39.439Z,11.15
2022-09-22T12:56:46.616Z,1.50
2022-09-22T12:57:51.224Z,2.75
2022-09-22T12:58:48.323Z,6.95
2022-09-22T12:59:55.573Z,4.72
2022-09-22T13:00:56.867Z,4.13
2022-09-22T13:02:17.492Z,7.13
2022-09-22T13:03:37.336Z,3.78
2022-09-22T13:04:33.963Z,8.07
2022-09-22T13:05:31.368Z,5.20
2022-09-22T13:06:27.955Z,7.47
2022-09-22T13:07:33.611Z,7.35
2022-09-22T13:08:30.207Z,1.38
2022-09-22T13:09:30.124Z,2.05
2022-09-22T13:10:27.329Z,3.45
2022-09-22T13:12:06.070Z,1.80
2022-09-22T13:13:05.543Z,2.42
2022-09-22T13:14:02.203Z,4.38
2022-09-22T13:15:00.559Z,1.02
2022-09-22T13:16:00.126Z,1.00
2022-09-22T13:16:56.802Z,2.38
2022-09-22T13:17:53.989Z,0.80
2022-09-22T13:18:51.032Z,45.75
2022-09-22T13:19:56.018Z,32.83
2022-09-22T13:20:52.647Z,8.70
2022-09-22T13:21:50.023Z,3.72
2022-09-22T13:22:46.660Z,1.40
2022-09-22T13:23:49.332Z,3.65
2022-09-22T13:24:45.955Z,3.63
2022-09-22T13:25:42.654Z,4.57
2022-09-22T13:26:41.035Z,5.93
2022-09-22T13:27:37.639Z,2.58
2022-09-22T13:28:34.274Z,6.43
2022-09-22T13:29:31.102Z,20.55
2022-09-22T13:30:27.704Z,15.15
2022-09-22T13:31:24.320Z,2.42
2022-09-22T13:32:26.980Z,2.20
2022-09-22T13:33:32.950Z,3.17
2022-09-22T13:34:31.522Z,2.95
2022-09-22T13:35:33.625Z,2.25
2022-09-22T13:36:30.263Z,1.10
2022-09-22T13:37:34.003Z,3.42
2022-09-22T13:38:34.980Z,4.05
2022-09-22T13:39:35.220Z,12.07
2022-09-22T13:40:34.877Z,6.75
2022-09-22T13:41:38.804Z,2.20
2022-09-22T13:42:36.928Z,9.52
2022-09-22T13:43:38.332Z,4.45
2022-09-22T13:44:38.527Z,3.05
2022-09-22T13:45:39.214Z,4.45
2022-09-22T13:46:40.026Z,2.35
2022-09-22T13:47:37.684Z,1.75
2022-09-22T13:48:37.353Z,1.20
2022-09-22T13:49:42.661Z,1.40
2022-09-22T13:50:51.808Z,0.90
2022-09-22T13:52:12.756Z,0.80